Time;durP1;ratioP1;P1;durP2;ratioP2;P2;SDS_P1;SDS_P2;PMS_P1;PMS_P2;Temp;Humidity;BMP_temperature;BMP_pressure;BME280_temperature;BME280_humidity;BME280_pressure;Samples;Min_cycle;Max_cycle;Signal;HPM_P1;HPM_P2
2021/12/08 00:02:12;;;;;;;16.05;5.80;;;2.90;99.90;;;;;;5000738;28;20038;-66
2021/12/08 00:04:39;;;;;;;15.43;4.90;;;2.90;99.90;;;;;;5017744;28;20054;-66
2021/12/08 00:07:06;;;;;;;18.92;5.18;;;2.90;99.90;;;;;;5000283;28;20056;-67
2021/12/08 00:10:03;;;;;;;15.43;5.15;;;2.90;99.90;;;;;;5017414;28;20052;-68
2021/12/08 00:15:05;;;;;;;;;;;2.90;99.90;;;;;;5000554;28;20096;-67
2021/12/08 00:17:31;;;;;;;16.40;6.38;;;2.90;99.90;;;;;;5017690;28;19976;-69
2021/12/08 00:20:01;;;;;;;13.20;6.35;;;2.90;99.90;;;;;;5017314;28;20465;-67
2021/12/08 00:22:27;;;;;;;16.52;7.10;;;2.90;99.90;;;;;;5012295;28;20499;-66
2021/12/08 00:24:52;;;;;;;14.95;6.78;;;2.80;99.90;;;;;;4997899;28;20443;-67
2021/12/08 00:27:18;;;;;;;21.77;8.02;;;2.80;99.90;;;;;;4997764;28;20079;-68
2021/12/08 00:29:43;;;;;;;18.00;7.53;;;2.80;99.90;;;;;;4997700;28;20443;-68
2021/12/08 00:32:10;;;;;;;23.95;7.70;;;2.80;99.90;;;;;;4980907;28;20050;-68
2021/12/08 00:34:35;;;;;;;18.23;7.63;;;2.80;99.90;;;;;;4997627;28;20100;-68
2021/12/08 00:37:02;;;;;;;15.93;7.45;;;2.80;99.90;;;;;;4997788;28;20137;-67
2021/12/08 00:39:27;;;;;;;15.38;7.00;;;2.80;99.90;;;;;;4980632;28;20424;-68
2021/12/08 00:41:53;;;;;;;18.23;7.15;;;2.90;99.90;;;;;;4979908;28;20089;-67
2021/12/08 00:44:18;;;;;;;14.02;6.97;;;2.90;99.90;;;;;;4964239;28;20097;-68
2021/12/08 00:46:44;;;;;;;14.65;5.53;;;2.90;99.90;;;;;;4980207;28;20438;-68
2021/12/08 00:49:12;;;;;;;17.80;7.00;;;2.90;99.90;;;;;;4979354;28;20058;-66
2021/12/08 00:51:37;;;;;;;18.08;7.30;;;2.90;99.90;;;;;;4980055;28;20455;-67
2021/12/08 00:54:04;;;;;;;17.67;7.22;;;2.90;99.90;;;;;;5015635;28;20049;-66
2021/12/08 00:56:30;;;;;;;23.42;7.40;;;2.90;99.90;;;;;;4999656;28;20050;-67
2021/12/08 00:58:56;;;;;;;17.08;8.30;;;2.90;99.90;;;;;;5016796;28;20045;-67
2021/12/08 01:01:22;;;;;;;20.70;7.90;;;2.90;99.90;;;;;;4999334;28;20469;-68
2021/12/08 01:03:49;;;;;;;13.10;7.90;;;2.90;99.90;;;;;;5016509;28;20129;-68
2021/12/08 01:06:17;;;;;;;20.38;7.60;;;2.90;99.90;;;;;;5016301;28;20046;-68
2021/12/08 01:08:43;;;;;;;17.58;7.18;;;2.90;99.90;;;;;;4999185;28;20096;-67
2021/12/08 01:11:17;;;;;;;15.88;6.20;;;3.00;99.90;;;;;;5016517;28;20116;-67
2021/12/08 01:13:44;;;;;;;15.70;6.95;;;3.10;99.90;;;;;;5016499;28;20054;-67
2021/12/08 01:16:10;;;;;;;15.20;7.28;;;3.10;99.90;;;;;;5016295;28;20046;-69
2021/12/08 01:18:35;;;;;;;18.35;7.28;;;3.10;99.90;;;;;;4998997;28;20061;-68
2021/12/08 01:21:05;;;;;;;16.17;6.80;;;3.10;99.90;;;;;;4999255;28;20042;-67
2021/12/08 01:23:31;;;;;;;13.90;7.88;;;3.10;99.90;;;;;;4983800;28;20054;-67
2021/12/08 01:25:56;;;;;;;14.98;7.97;;;3.10;99.90;;;;;;4996731;28;20061;-66
2021/12/08 01:28:23;;;;;;;11.98;6.75;;;3.20;99.90;;;;;;4996573;28;20109;-67
2021/12/08 01:30:51;;;;;;;20.55;7.70;;;3.20;99.90;;;;;;4996297;28;20081;-65
2021/12/08 01:33:18;;;;;;;14.70;7.35;;;3.20;99.90;;;;;;4996734;28;20046;-68
2021/12/08 01:35:44;;;;;;;15.50;7.22;;;3.20;99.90;;;;;;4979111;28;20125;-67
2021/12/08 01:38:10;;;;;;;14.43;7.60;;;3.30;99.90;;;;;;4996042;28;20527;-67
2021/12/08 01:40:36;;;;;;;13.52;7.05;;;3.30;99.90;;;;;;4979118;28;20085;-67
2021/12/08 01:43:03;;;;;;;12.10;7.15;;;3.30;99.90;;;;;;4996362;28;20104;-66
2021/12/08 01:48:17;;;;;;;12.45;6.65;;;3.40;99.90;;;;;;4996146;28;20463;-67
2021/12/08 01:50:52;;;;;;;16.23;7.68;;;3.40;99.90;;;;;;4978598;28;20058;-67
2021/12/08 01:53:19;;;;;;;14.70;6.07;;;3.40;99.90;;;;;;5011444;28;20498;-67
2021/12/08 01:55:45;;;;;;;17.10;6.38;;;3.40;99.90;;;;;;4998181;28;20406;-68
2021/12/08 01:58:13;;;;;;;16.80;7.80;;;3.40;99.90;;;;;;4998137;28;20045;-67
2021/12/08 02:00:43;;;;;;;14.77;6.97;;;3.40;99.90;;;;;;4997673;28;20049;-67
2021/12/08 02:03:09;;;;;;;13.52;6.43;;;3.40;99.90;;;;;;4997846;28;20053;-68
2021/12/08 02:05:35;;;;;;;17.27;7.20;;;3.40;99.90;;;;;;5015524;28;20069;-69
2021/12/08 02:08:01;;;;;;;19.65;7.43;;;3.50;99.90;;;;;;4998427;28;20045;-67
2021/12/08 02:10:27;;;;;;;17.63;8.18;;;4.40;99.90;;;;;;5015205;28;20060;-69
2021/12/08 02:12:54;;;;;;;13.55;7.88;;;3.40;99.90;;;;;;4998888;28;20081;-66
2021/12/08 02:15:21;;;;;;;18.15;7.22;;;3.50;99.90;;;;;;4997692;28;20056;-67
2021/12/08 02:17:55;;;;;;;15.82;7.70;;;3.50;99.90;;;;;;4998430;28;20096;-68
2021/12/08 02:20:23;;;;;;;19.20;7.72;;;3.40;99.90;;;;;;5015282;28;20057;-67
2021/12/08 02:22:49;;;;;;;14.85;8.43;;;3.50;99.90;;;;;;4986276;28;20153;-69
2021/12/08 02:25:20;;;;;;;16.42;7.47;;;3.50;99.90;;;;;;4995653;28;20129;-67
2021/12/08 02:27:47;;;;;;;14.55;6.70;;;3.50;99.90;;;;;;4978681;28;20125;-66
2021/12/08 02:30:39;;;;;;;19.83;8.60;;;3.50;99.90;;;;;;4978346;28;20082;-68
2021/12/08 02:49:29;;;;;;;12.90;8.00;;;3.50;99.90;;;;;;4995530;28;20371;-67
2021/12/08 02:51:55;;;;;;;18.90;8.80;;;3.50;99.90;;;;;;4981571;28;20077;-69
2021/12/08 02:54:21;;;;;;;15.40;8.20;;;3.50;99.90;;;;;;5014807;28;20415;-67
2021/12/08 02:56:48;;;;;;;17.63;8.02;;;3.50;99.90;;;;;;4997190;28;20132;-68
2021/12/08 02:59:14;;;;;;;15.45;7.95;;;3.50;99.90;;;;;;5015126;28;20126;-67
2021/12/08 03:01:40;;;;;;;18.15;8.07;;;3.50;99.90;;;;;;4997436;28;20108;-68
2021/12/08 03:04:08;;;;;;;16.45;8.38;;;3.50;99.90;;;;;;5014894;28;20077;-68
2021/12/08 03:06:34;;;;;;;16.50;8.18;;;3.50;99.90;;;;;;4997375;28;20458;-70
2021/12/08 03:09:00;;;;;;;16.13;7.88;;;3.50;99.90;;;;;;5014721;28;20085;-67
2021/12/08 03:11:26;;;;;;;13.75;7.95;;;3.50;99.90;;;;;;5016766;28;20053;-68
2021/12/08 03:14:18;;;;;;;12.75;7.35;;;3.50;99.90;;;;;;5001547;28;20042;-67
2021/12/08 03:16:48;;;;;;;16.92;8.50;;;3.60;99.90;;;;;;5014701;28;20395;-68
2021/12/08 03:19:14;;;;;;;13.20;9.07;;;3.60;99.90;;;;;;5001288;28;20081;-67
2021/12/08 03:21:40;;;;;;;18.00;9.00;;;3.60;99.90;;;;;;4996461;28;20069;-66
2021/12/08 03:24:20;;;;;;;17.83;9.30;;;3.60;99.90;;;;;;4981608;28;20467;-66
2021/12/08 03:29:31;;;;;;;21.92;10.18;;;3.70;99.90;;;;;;4998936;28;20050;-66
2021/12/08 03:32:05;;;;;;;23.15;10.48;;;3.60;99.90;;;;;;4981225;28;20061;-68
2021/12/08 03:34:32;;;;;;;19.58;10.57;;;3.60;99.90;;;;;;4998514;28;20072;-67
2021/12/08 03:36:58;;;;;;;17.25;10.35;;;3.60;99.90;;;;;;4998826;28;20042;-67
2021/12/08 03:39:24;;;;;;;15.88;10.05;;;3.70;99.90;;;;;;5003077;28;20081;-66
2021/12/08 03:41:49;;;;;;;14.95;10.35;;;3.70;99.90;;;;;;5000285;28;20081;-66
2021/12/08 03:44:15;;;;;;;17.88;10.20;;;3.70;99.90;;;;;;5000902;28;20125;-67
2021/12/08 03:46:42;;;;;;;23.35;11.50;;;3.70;99.90;;;;;;5000484;28;20736;-67
2021/12/08 03:49:18;;;;;;;22.50;10.73;;;3.70;99.90;;;;;;5000174;28;20129;-67
2021/12/08 03:51:44;;;;;;;21.52;11.15;;;3.70;99.90;;;;;;5000583;28;20046;-67
2021/12/08 03:54:11;;;;;;;17.52;10.85;;;4.10;99.90;;;;;;5000570;28;20433;-67
2021/12/08 03:56:38;;;;;;;20.80;11.32;;;3.90;99.90;;;;;;5000692;28;20119;-68
2021/12/08 03:59:05;;;;;;;19.75;11.23;;;3.80;99.90;;;;;;5017669;28;20458;-67
2021/12/08 04:01:31;;;;;;;22.02;11.93;;;3.80;99.90;;;;;;5017539;28;20112;-67
2021/12/08 04:04:04;;;;;;;21.95;11.60;;;3.80;99.90;;;;;;5018056;28;20116;-66
2021/12/08 04:06:34;;;;;;;24.85;12.85;;;3.80;99.90;;;;;;5017436;28;20054;-69
2021/12/08 04:09:03;;;;;;;19.55;11.90;;;3.80;99.90;;;;;;5000378;28;20518;-68
2021/12/08 04:11:29;;;;;;;24.35;12.50;;;3.80;99.90;;;;;;4998311;28;20108;-67
2021/12/08 04:13:57;;;;;;;22.45;12.63;;;3.90;99.90;;;;;;4998057;28;20402;-68
2021/12/08 04:16:28;;;;;;;23.38;13.68;;;4.00;99.90;;;;;;4980609;28;20120;-67
2021/12/08 04:18:57;;;;;;;22.52;13.43;;;3.90;99.90;;;;;;4980876;28;20050;-66
2021/12/08 04:21:23;;;;;;;22.02;14.35;;;3.90;99.90;;;;;;4997922;28;20061;-68
2021/12/08 04:23:49;;;;;;;25.70;13.90;;;4.00;99.90;;;;;;4996773;28;20050;-67
2021/12/08 04:26:30;;;;;;;21.27;14.25;;;4.00;99.90;;;;;;4997471;28;20447;-66
2021/12/08 04:28:56;;;;;;;21.00;14.40;;;4.00;99.90;;;;;;4980460;28;20089;-67
2021/12/08 04:31:26;;;;;;;23.95;14.70;;;3.90;99.90;;;;;;4997515;28;20073;-67
2021/12/08 04:33:59;;;;;;;23.08;15.15;;;4.00;99.90;;;;;;4980212;28;20046;-66
2021/12/08 04:36:31;;;;;;;27.10;16.58;;;4.00;99.90;;;;;;4980239;28;20061;-66
2021/12/08 04:38:59;;;;;;;28.60;15.30;;;4.00;99.90;;;;;;4980626;28;20050;-66
2021/12/08 04:41:37;;;;;;;24.83;15.25;;;4.00;99.90;;;;;;4997975;28;20100;-66
2021/12/08 04:44:20;;;;;;;27.35;16.40;;;4.10;99.90;;;;;;4999594;28;20466;-66
2021/12/08 04:52:08;;;;;;;24.88;15.80;;;4.20;99.90;;;;;;5016843;28;20053;-66
2021/12/08 05:03:36;;;;;;;25.17;16.35;;;4.30;99.90;;;;;;4999069;28;20504;-68
2021/12/08 05:06:23;;;;;;;24.63;16.65;;;4.30;99.90;;;;;;5009660;28;20074;-66
2021/12/08 05:08:54;;;;;;;27.33;17.08;;;4.30;99.90;;;;;;5012755;28;20058;-68
2021/12/08 05:11:24;;;;;;;26.55;16.55;;;4.30;99.90;;;;;;4996029;28;20050;-67
2021/12/08 05:13:54;;;;;;;32.03;18.02;;;4.40;99.90;;;;;;4995937;28;20133;-66
2021/12/08 05:16:21;;;;;;;25.02;16.63;;;4.40;99.90;;;;;;4995786;28;20489;-69
2021/12/08 05:18:49;;;;;;;26.00;17.17;;;4.40;99.90;;;;;;4995490;28;20455;-68
2021/12/08 05:21:21;;;;;;;24.52;15.80;;;4.40;99.90;;;;;;4996146;28;20050;-66
2021/12/08 05:23:58;;;;;;;25.27;16.60;;;4.40;99.90;;;;;;5004835;28;20049;-69
2021/12/08 05:26:28;;;;;;;25.08;18.20;;;4.40;99.90;;;;;;4998264;28;20060;-67
2021/12/08 05:28:59;;;;;;;29.88;17.42;;;4.40;99.90;;;;;;4986286;28;20095;-69
2021/12/08 05:31:28;;;;;;;27.65;17.50;;;4.50;99.90;;;;;;4999214;28;20041;-67
2021/12/08 05:33:54;;;;;;;29.25;17.50;;;4.50;99.90;;;;;;4998104;28;20362;-66
2021/12/08 05:36:22;;;;;;;28.85;17.52;;;4.50;99.90;;;;;;5003784;28;20047;-68
2021/12/08 05:38:49;;;;;;;24.13;16.35;;;4.50;99.90;;;;;;4979098;28;20058;-65
2021/12/08 05:41:16;;;;;;;25.05;16.13;;;4.60;99.90;;;;;;4996188;28;20054;-67
2021/12/08 05:43:44;;;;;;;30.85;16.38;;;4.60;99.90;;;;;;4979101;28;20058;-68
2021/12/08 05:46:10;;;;;;;28.05;17.38;;;4.70;99.90;;;;;;4979429;28;20046;-67
2021/12/08 05:48:37;;;;;;;31.27;17.58;;;4.70;99.90;;;;;;4978929;28;20154;-66
2021/12/08 05:51:13;;;;;;;25.52;15.52;;;4.70;99.90;;;;;;4996115;28;20065;-67
2021/12/08 05:53:41;;;;;;;26.60;14.98;;;4.70;99.90;;;;;;4995952;28;20050;-69
2021/12/08 05:56:08;;;;;;;26.92;16.10;;;4.70;99.90;;;;;;4963276;28;20066;-67
2021/12/08 05:58:35;;;;;;;24.95;15.55;;;4.70;99.90;;;;;;4979520;28;20411;-67
2021/12/08 06:01:13;;;;;;;29.33;14.63;;;4.70;99.90;;;;;;4978833;28;20047;-66
2021/12/08 06:03:41;;;;;;;24.38;15.13;;;4.70;99.90;;;;;;5007550;28;20056;-67
2021/12/08 06:06:08;;;;;;;19.05;13.55;;;4.80;99.90;;;;;;4995263;28;20056;-69
2021/12/08 06:08:34;;;;;;;22.95;13.40;;;4.80;99.90;;;;;;4981968;28;20092;-65
2021/12/08 06:11:04;;;;;;;24.10;13.68;;;4.80;99.90;;;;;;4998694;28;20108;-68
2021/12/08 06:13:30;;;;;;;22.67;13.32;;;4.80;99.90;;;;;;4997882;28;20053;-67
2021/12/08 06:15:56;;;;;;;20.20;12.27;;;4.80;99.90;;;;;;4982328;28;20050;-68
2021/12/08 06:18:25;;;;;;;26.73;13.48;;;4.80;99.90;;;;;;5014949;28;20053;-66
2021/12/08 06:20:58;;;;;;;19.83;13.27;;;4.80;99.90;;;;;;4997716;28;20458;-68
2021/12/08 06:23:24;;;;;;;20.30;11.77;;;4.80;99.90;;;;;;5015073;28;20140;-67
2021/12/08 06:25:50;;;;;;;23.40;11.85;;;4.80;99.90;;;;;;4997602;28;20138;-68
2021/12/08 06:28:15;;;;;;;23.85;11.90;;;4.90;99.90;;;;;;4997622;28;20049;-66
2021/12/08 06:30:45;;;;;;;17.08;11.70;;;4.90;99.90;;;;;;4981065;28;20062;-69
2021/12/08 06:33:12;;;;;;;18.48;10.88;;;4.90;99.90;;;;;;4980624;28;20073;-68
2021/12/08 06:35:47;;;;;;;23.50;11.75;;;4.90;99.90;;;;;;4967105;28;20050;-70
2021/12/08 06:38:14;;;;;;;21.13;11.05;;;4.90;99.90;;;;;;4976917;28;20467;-68
2021/12/08 06:40:46;;;;;;;18.20;11.00;;;4.80;99.90;;;;;;4967074;28;20050;-67
2021/12/08 06:43:18;;;;;;;19.00;10.93;;;4.80;99.90;;;;;;4978498;28;20137;-68
2021/12/08 06:45:48;;;;;;;17.92;10.10;;;4.80;99.90;;;;;;4978243;28;20057;-68
2021/12/08 06:48:23;;;;;;;19.17;11.68;;;4.80;99.90;;;;;;4981658;28;20050;-68
2021/12/08 06:50:54;;;;;;;18.45;10.20;;;4.80;99.90;;;;;;4998803;28;20145;-67
2021/12/08 06:53:23;;;;;;;15.95;9.65;;;4.80;99.90;;;;;;4987403;28;20180;-69
2021/12/08 06:55:53;;;;;;;17.85;10.20;;;4.80;99.90;;;;;;4987888;28;20049;-68
2021/12/08 06:58:25;;;;;;;16.77;10.43;;;4.90;99.90;;;;;;4987074;28;20586;-68
2021/12/08 07:03:47;;;;;;;18.95;9.77;;;5.00;99.90;;;;;;4998947;28;20121;-68
2021/12/08 07:06:43;;;;;;;19.27;9.52;;;4.80;99.90;;;;;;4979597;28;20448;-68
2021/12/08 07:09:16;;;;;;;28.63;9.82;;;4.80;99.90;;;;;;4971640;28;20109;-68
2021/12/08 07:11:42;;;;;;;16.95;9.50;;;4.70;99.90;;;;;;4981324;28;20418;-69
2021/12/08 07:14:09;;;;;;;19.42;10.40;;;4.70;99.90;;;;;;4998737;28;20054;-68
2021/12/08 07:16:39;;;;;;;17.48;8.27;;;4.70;99.90;;;;;;4998715;28;20061;-67
2021/12/08 07:19:23;;;;;;;16.52;8.95;;;4.60;99.90;;;;;;4998209;28;20531;-68
2021/12/08 07:21:49;;;;;;;;;;;4.60;99.90;;;;;;4982277;28;20108;-67
2021/12/08 07:24:31;;;;;;;15.52;8.77;;;4.60;99.90;;;;;;5011049;28;19921;-69
2021/12/08 07:27:08;;;;;;;15.73;9.20;;;4.50;99.90;;;;;;4998572;28;20128;-67
2021/12/08 07:29:37;;;;;;;17.02;8.23;;;4.50;99.90;;;;;;4980359;28;20092;-68
2021/12/08 07:32:30;;;;;;;23.35;8.70;;;4.40;99.90;;;;;;4998307;28;20105;-68
2021/12/08 07:34:59;;;;;;;16.38;8.25;;;4.40;99.90;;;;;;4991656;28;20145;-66
2021/12/08 07:37:29;;;;;;;13.88;6.57;;;4.40;99.90;;;;;;4977085;28;20046;-68
2021/12/08 07:40:05;;;;;;;20.13;7.53;;;4.30;99.90;;;;;;5002085;28;20057;-67
2021/12/08 07:42:41;;;;;;;13.90;7.15;;;4.30;99.90;;;;;;4997486;28;20057;-67
2021/12/08 07:45:11;;;;;;;13.15;7.32;;;4.30;99.90;;;;;;4979800;28;20125;-66
2021/12/08 07:47:38;;;;;;;16.70;7.10;;;4.30;99.90;;;;;;4990855;28;20046;-68
2021/12/08 07:50:17;;;;;;;13.40;6.07;;;4.30;99.90;;;;;;4997852;28;20058;-68
2021/12/08 07:52:46;;;;;;;10.73;6.50;;;4.20;99.90;;;;;;4998041;28;20382;-67
2021/12/08 07:55:39;;;;;;;14.90;6.63;;;4.30;99.90;;;;;;4981000;28;20061;-68
2021/12/08 07:58:06;;;;;;;18.23;6.90;;;4.30;99.90;;;;;;4979842;28;20055;-67
2021/12/08 08:00:47;;;;;;;14.40;6.68;;;4.30;99.90;;;;;;4997969;28;20058;-67
2021/12/08 08:03:16;;;;;;;14.07;6.50;;;4.30;99.90;;;;;;4999336;28;20568;-66
2021/12/08 08:05:48;;;;;;;18.15;6.43;;;4.30;99.90;;;;;;5000332;28;20386;-68
2021/12/08 08:08:16;;;;;;;12.02;6.20;;;4.20;99.90;;;;;;4999712;28;20378;-69
2021/12/08 08:10:51;;;;;;;16.30;6.03;;;4.20;99.90;;;;;;4980386;28;20093;-68
2021/12/08 08:13:19;;;;;;;13.45;6.20;;;4.20;99.90;;;;;;4997453;28;20081;-68
2021/12/08 08:15:50;;;;;;;12.02;5.22;;;4.20;99.90;;;;;;4984155;28;20363;-69
2021/12/08 08:18:20;;;;;;;17.35;6.15;;;4.40;99.90;;;;;;4964487;28;20043;-67
2021/12/08 08:20:50;;;;;;;15.68;6.13;;;4.20;99.90;;;;;;4996049;28;20348;-67
2021/12/08 08:23:18;;;;;;;12.95;5.85;;;4.30;99.90;;;;;;4968276;28;20042;-67
2021/12/08 08:25:49;;;;;;;11.70;4.95;;;4.30;99.90;;;;;;4996586;28;20048;-68
2021/12/08 08:28:16;;;;;;;15.20;5.47;;;4.30;99.90;;;;;;4979537;28;20477;-68
2021/12/08 08:30:52;;;;;;;15.15;5.50;;;4.30;99.90;;;;;;4995869;28;20061;-69
2021/12/08 08:33:19;;;;;;;14.20;4.88;;;4.30;99.90;;;;;;4980152;28;20069;-68
2021/12/08 08:35:49;;;;;;;15.63;5.00;;;4.30;99.90;;;;;;4981615;28;20050;-67
2021/12/08 08:38:27;;;;;;;10.95;4.93;;;4.40;99.90;;;;;;4972031;28;20061;-66
2021/12/08 08:40:59;;;;;;;15.38;5.28;;;4.40;99.90;;;;;;4996722;28;20042;-68
2021/12/08 08:43:25;;;;;;;16.40;5.22;;;4.40;99.90;;;;;;4996711;28;20084;-69
2021/12/08 08:45:56;;;;;;;10.50;4.65;;;4.40;99.90;;;;;;5000674;28;20038;-70
2021/12/08 08:48:35;;;;;;;14.27;4.90;;;4.50;99.90;;;;;;4996966;28;20056;-68
2021/12/08 08:51:14;;;;;;;18.88;4.88;;;4.50;99.90;;;;;;4987050;28;20442;-67
2021/12/08 08:53:43;;;;;;;18.40;4.15;;;4.50;99.90;;;;;;4980027;28;20073;-68
2021/12/08 08:56:14;;;;;;;9.73;3.75;;;4.50;99.90;;;;;;4979456;28;20157;-67
2021/12/08 08:58:46;;;;;;;13.40;4.35;;;4.60;99.90;;;;;;4996769;28;20080;-69
2021/12/08 09:01:20;;;;;;;13.77;4.35;;;4.60;99.90;;;;;;4996517;28;20375;-68
2021/12/08 09:03:53;;;;;;;9.88;3.58;;;4.70;99.90;;;;;;4996624;28;20121;-67
2021/12/08 09:06:25;;;;;;;15.23;4.28;;;4.80;99.90;;;;;;4995377;28;20046;-67
2021/12/08 09:08:50;;;;;;;15.68;4.30;;;4.80;99.90;;;;;;4978342;28;20118;-69
2021/12/08 09:11:27;;;;;;;18.02;4.45;;;4.90;99.90;;;;;;4996264;28;20117;-68
2021/12/08 09:14:21;;;;;;;15.13;4.38;;;5.00;99.90;;;;;;4977991;28;20490;-66
2021/12/08 09:16:57;;;;;;;;;;;5.10;99.90;;;;;;4993659;28;20062;-68
2021/12/08 09:19:30;;;;;;;14.07;3.70;;;5.10;99.90;;;;;;4973814;28;20067;-68
2021/12/08 09:22:22;;;;;;;11.20;3.40;;;5.10;99.90;;;;;;4963247;28;20054;-68
2021/12/08 09:24:59;;;;;;;13.32;3.70;;;5.10;99.90;;;;;;4979228;28;20046;-67
2021/12/08 09:27:33;;;;;;;15.13;3.25;;;5.10;99.90;;;;;;4979303;28;20137;-68
2021/12/08 09:30:05;;;;;;;13.60;2.92;;;5.10;99.90;;;;;;4979081;28;20061;-68
2021/12/08 09:32:39;;;;;;;8.52;3.58;;;5.10;99.90;;;;;;4979002;28;20137;-69
2021/12/08 09:35:38;;;;;;;10.13;3.33;;;5.10;99.90;;;;;;4996726;28;20119;-69
2021/12/08 09:38:33;;;;;;;17.60;3.75;;;5.10;99.90;;;;;;4988919;28;20062;-67
2021/12/08 09:41:07;;;;;;;15.00;3.72;;;5.10;99.90;;;;;;4981872;28;20058;-68
2021/12/08 09:43:48;;;;;;;11.65;3.50;;;5.10;99.90;;;;;;4996631;28;20092;-67
2021/12/08 09:46:19;;;;;;;10.55;3.60;;;5.10;99.90;;;;;;4996072;28;20050;-68
2021/12/08 09:48:46;;;;;;;10.68;3.58;;;5.10;99.90;;;;;;4995981;28;20076;-68
2021/12/08 09:51:15;;;;;;;15.85;3.35;;;5.10;99.90;;;;;;4978603;28;20117;-68
2021/12/08 09:53:44;;;;;;;12.65;3.67;;;5.20;99.90;;;;;;4995799;28;20120;-68
2021/12/08 09:56:10;;;;;;;24.40;4.65;;;5.20;99.90;;;;;;4978746;28;20054;-67
2021/12/08 09:58:37;;;;;;;13.93;4.07;;;5.20;99.90;;;;;;4978842;28;20042;-66
2021/12/08 10:01:04;;;;;;;15.57;3.75;;;5.20;99.90;;;;;;4979304;28;20077;-67
2021/12/08 10:03:29;;;;;;;10.38;2.90;;;5.30;99.90;;;;;;4996004;28;20046;-67
2021/12/08 10:05:55;;;;;;;15.27;4.25;;;5.30;99.90;;;;;;4978469;28;20053;-67
2021/12/08 10:08:21;;;;;;;9.10;3.17;;;5.30;99.90;;;;;;4996275;28;20140;-68
2021/12/08 10:10:47;;;;;;;11.32;3.40;;;5.40;99.90;;;;;;4992702;28;20130;-66
2021/12/08 10:13:14;;;;;;;17.23;3.80;;;5.40;99.90;;;;;;4978617;28;20050;-67
2021/12/08 10:15:41;;;;;;;14.85;3.65;;;5.40;99.90;;;;;;4995755;28;20046;-68
2021/12/08 10:18:08;;;;;;;14.50;3.92;;;5.40;99.90;;;;;;4995670;28;20038;-67
2021/12/08 10:20:50;;;;;;;12.82;3.10;;;5.40;99.90;;;;;;4977753;28;20455;-68
2021/12/08 10:23:28;;;;;;;16.55;3.20;;;5.40;99.90;;;;;;4978488;28;20046;-66
2021/12/08 10:25:58;;;;;;;13.73;3.65;;;5.40;99.90;;;;;;4995666;28;20086;-67
2021/12/08 10:28:29;;;;;;;16.45;3.83;;;5.60;99.90;;;;;;4995664;28;20130;-65
2021/12/08 10:31:06;;;;;;;11.43;3.17;;;5.40;99.90;;;;;;4995382;28;20046;-68
2021/12/08 10:36:35;;;;;;;12.65;3.42;;;5.30;99.90;;;;;;4995478;28;20058;-66
2021/12/08 10:39:06;;;;;;;14.80;3.75;;;5.20;99.90;;;;;;4998834;28;20454;-67
2021/12/08 10:41:54;;;;;;;12.68;4.07;;;5.20;99.90;;;;;;5014798;28;20124;-66
2021/12/08 10:44:27;;;;;;;13.68;4.18;;;5.30;99.90;;;;;;5014822;28;20046;-68
2021/12/08 10:46:58;;;;;;;9.00;3.58;;;5.30;99.90;;;;;;5015134;28;20065;-66
2021/12/08 10:54:45;;;;;;;20.85;4.35;;;5.20;99.90;;;;;;5014884;28;20147;-68
2021/12/08 10:57:32;;;;;;;16.70;3.65;;;5.30;99.90;;;;;;4997354;28;20046;-67
2021/12/08 11:00:12;;;;;;;15.68;5.13;;;5.40;99.90;;;;;;5014948;28;20447;-69
2021/12/08 11:02:49;;;;;;;16.23;3.90;;;5.30;99.90;;;;;;4997413;28;20466;-69
2021/12/08 11:05:23;;;;;;;12.32;3.72;;;5.30;99.90;;;;;;4997514;28;20054;-67
2021/12/08 11:08:08;;;;;;;9.40;3.50;;;5.40;99.90;;;;;;4997424;28;20065;-67
2021/12/08 11:10:53;;;;;;;16.10;3.58;;;5.30;99.90;;;;;;4995744;28;20045;-67
2021/12/08 11:13:26;;;;;;;15.15;3.85;;;5.40;99.90;;;;;;5014671;28;20041;-66
2021/12/08 11:16:00;;;;;;;11.60;3.75;;;5.40;99.90;;;;;;4997666;28;20370;-66
2021/12/08 11:18:30;;;;;;;11.88;3.50;;;5.40;99.90;;;;;;4997334;28;20049;-67
2021/12/08 11:21:06;;;;;;;13.80;4.18;;;5.40;99.90;;;;;;4997027;28;20057;-67
2021/12/08 11:23:43;;;;;;;13.15;4.88;;;5.50;99.90;;;;;;5014531;28;20060;-68
2021/12/08 11:26:35;;;;;;;16.33;3.97;;;5.60;99.90;;;;;;5014853;28;20056;-66
2021/12/08 11:29:05;;;;;;;18.08;3.83;;;5.70;99.90;;;;;;5014818;28;20413;-68
2021/12/08 11:31:35;;;;;;;7.00;3.45;;;5.80;99.90;;;;;;5015061;28;20124;-67
2021/12/08 11:34:05;;;;;;;15.45;4.72;;;5.80;99.90;;;;;;5017895;28;20485;-66
2021/12/08 11:36:36;;;;;;;19.90;4.32;;;5.90;99.90;;;;;;5000842;28;20061;-66
2021/12/08 11:39:15;;;;;;;14.20;4.07;;;5.90;99.90;;;;;;5000631;28;20061;-67
2021/12/08 11:41:48;;;;;;;14.68;4.00;;;6.00;99.90;;;;;;4997003;28;20050;-67
2021/12/08 11:44:17;;;;;;;15.23;4.00;;;6.00;99.90;;;;;;5018484;28;20351;-66
2021/12/08 11:46:49;;;;;;;9.85;3.83;;;6.00;99.90;;;;;;5000661;28;20057;-66
2021/12/08 11:49:16;;;;;;;10.98;3.55;;;6.10;99.90;;;;;;5000446;28;20054;-66
2021/12/08 11:51:44;;;;;;;12.93;4.00;;;6.10;99.90;;;;;;5018202;28;20046;-66
2021/12/08 11:54:26;;;;;;;13.93;3.85;;;6.10;99.90;;;;;;5017997;28;20569;-68
2021/12/08 11:56:53;;;;;;;11.68;3.55;;;6.10;99.90;;;;;;5017613;28;20060;-67
2021/12/08 11:59:19;;;;;;;11.45;3.55;;;6.10;99.90;;;;;;5017895;28;20062;-68
2021/12/08 12:01:47;;;;;;;9.68;3.63;;;6.10;99.90;;;;;;5017682;28;20060;-67
2021/12/08 12:04:13;;;;;;;7.35;3.33;;;6.10;99.90;;;;;;5000529;28;20129;-67
2021/12/08 12:06:39;;;;;;;11.85;3.85;;;6.10;99.90;;;;;;5017649;28;20188;-68
2021/12/08 12:09:07;;;;;;;12.85;3.78;;;6.10;99.90;;;;;;4983725;28;20053;-66
2021/12/08 12:11:33;;;;;;;13.30;4.20;;;6.10;99.90;;;;;;4999394;28;20459;-68
2021/12/08 12:14:00;;;;;;;16.15;4.15;;;6.10;99.90;;;;;;4992720;28;20050;-67
2021/12/08 12:16:26;;;;;;;14.85;4.50;;;6.10;99.90;;;;;;5017342;28;20116;-68
2021/12/08 12:18:56;;;;;;;9.63;4.30;;;6.10;99.90;;;;;;5000421;28;20049;-68
2021/12/08 12:21:41;;;;;;;11.73;4.00;;;6.10;99.90;;;;;;5017084;28;20129;-66
2021/12/08 12:24:28;;;;;;;9.20;3.83;;;6.10;99.90;;;;;;5017304;28;20137;-66
2021/12/08 12:27:20;;;;;;;15.63;4.13;;;6.10;99.90;;;;;;5017435;28;20046;-66
2021/12/08 12:30:06;;;;;;;13.63;4.10;;;6.10;99.90;;;;;;4978345;28;20359;-66
2021/12/08 12:32:47;;;;;;;11.55;3.92;;;6.00;99.90;;;;;;4960881;28;20097;-66
2021/12/08 12:35:33;;;;;;;9.20;3.85;;;6.00;99.90;;;;;;4978091;28;20393;-67
2021/12/08 12:38:09;;;;;;;15.63;4.22;;;6.00;99.90;;;;;;4960727;28;20090;-67
2021/12/08 12:40:51;;;;;;;14.48;3.78;;;5.90;99.90;;;;;;4977647;28;20515;-68
2021/12/08 12:43:28;;;;;;;10.32;4.15;;;6.00;99.90;;;;;;4960958;28;20058;-68
2021/12/08 12:46:12;;;;;;;11.13;3.72;;;6.00;99.90;;;;;;4977643;28;20046;-68
2021/12/08 12:48:38;;;;;;;10.15;4.07;;;5.90;99.90;;;;;;4960220;28;20475;-66
2021/12/08 12:51:13;;;;;;;11.15;3.65;;;5.90;99.90;;;;;;4960716;28;20061;-67
2021/12/08 12:53:39;;;;;;;12.45;4.07;;;5.90;99.90;;;;;;4977955;28;20360;-67
2021/12/08 12:56:10;;;;;;;13.63;4.10;;;5.90;99.90;;;;;;4960746;28;20050;-67
2021/12/08 12:58:49;;;;;;;10.85;4.00;;;5.90;99.90;;;;;;4980434;28;20053;-68
2021/12/08 13:01:18;;;;;;;9.13;3.17;;;5.90;99.90;;;;;;4967205;28;20069;-68
2021/12/08 13:03:54;;;;;;;10.23;3.70;;;5.90;99.90;;;;;;4979669;28;20046;-66
2021/12/08 13:06:47;;;;;;;12.48;3.50;;;5.90;99.90;;;;;;4997063;28;20463;-66
2021/12/08 13:10:00;;;;;;;12.73;3.80;;;5.90;99.90;;;;;;4975712;28;20085;-66
2021/12/08 13:12:27;;;;;;;9.00;3.57;;;5.90;99.90;;;;;;4969633;28;20058;-67
2021/12/08 13:15:17;;;;;;;10.90;3.97;;;5.90;99.90;;;;;;4996652;28;20046;-65
2021/12/08 13:18:15;;;;;;;14.75;4.55;;;5.90;99.90;;;;;;4996629;28;20054;-67
2021/12/08 13:20:59;;;;;;;11.85;4.00;;;5.90;99.90;;;;;;4996556;28;20053;-67
2021/12/08 13:23:27;;;;;;;;;;;5.90;99.90;;;;;;4980048;28;20061;-67
2021/12/08 13:26:02;;;;;;;12.57;3.45;;;5.90;99.90;;;;;;4979468;28;19933;-68
2021/12/08 13:28:34;;;;;;;9.70;3.45;;;5.90;99.90;;;;;;4986984;28;20113;-66
2021/12/08 13:31:12;;;;;;;13.63;3.53;;;5.90;99.90;;;;;;4998812;28;20053;-68
2021/12/08 13:33:44;;;;;;;7.28;3.45;;;5.90;99.90;;;;;;4999143;28;20100;-66
2021/12/08 13:36:30;;;;;;;16.13;3.70;;;5.90;99.90;;;;;;5016544;28;20064;-68
2021/12/08 13:39:07;;;;;;;7.25;3.40;;;5.90;99.90;;;;;;4998316;28;20124;-67
2021/12/08 13:41:35;;;;;;;12.70;3.60;;;5.90;99.90;;;;;;4999205;28;20042;-68
2021/12/08 13:44:18;;;;;;;10.35;3.55;;;5.80;99.90;;;;;;4998459;28;20053;-66
2021/12/08 13:46:55;;;;;;;18.87;4.07;;;5.80;99.90;;;;;;4998624;28;20065;-67
2021/12/08 13:49:34;;;;;;;14.88;4.20;;;5.80;99.90;;;;;;4998381;28;20292;-66
2021/12/08 13:52:08;;;;;;;10.13;4.10;;;5.80;99.90;;;;;;4998687;28;20053;-67
2021/12/08 13:54:40;;;;;;;10.45;3.03;;;5.90;99.90;;;;;;5015539;28;20145;-67
2021/12/08 13:57:43;;;;;;;11.15;3.35;;;5.80;99.90;;;;;;4997720;28;20042;-69
2021/12/08 14:00:17;;;;;;;8.68;3.30;;;5.90;99.90;;;;;;4979400;28;20061;-68